sensor_id;sensor_type;location;lat;lon;timestamp;pressure;altitude;pressure_sealevel;temperature;humidity
57574;BME280;68988;49.000;21.242;2023-06-24T00:01:31;98706.69;;;27.44;52.94
57574;BME280;68988;49.000;21.242;2023-06-24T00:03:57;98708.59;;;27.44;52.88
57574;BME280;68988;49.000;21.242;2023-06-24T00:06:23;98708.34;;;27.40;52.88
57574;BME280;68988;49.000;21.242;2023-06-24T00:08:51;98700.53;;;27.39;53.43
57574;BME280;68988;49.000;21.242;2023-06-24T00:11:17;98703.78;;;27.41;53.18
57574;BME280;68988;49.000;21.242;2023-06-24T00:13:43;98698.97;;;27.38;53.18
57574;BME280;68988;49.000;21.242;2023-06-24T00:16:10;98702.66;;;27.42;53.19
57574;BME280;68988;49.000;21.242;2023-06-24T00:18:37;98720.50;;;27.38;53.16
57574;BME280;68988;49.000;21.242;2023-06-24T00:21:06;98727.19;;;27.40;53.10
57574;BME280;68988;49.000;21.242;2023-06-24T00:23:31;98725.31;;;27.41;52.99
57574;BME280;68988;49.000;21.242;2023-06-24T00:25:59;98726.91;;;27.42;53.07
57574;BME280;68988;49.000;21.242;2023-06-24T00:28:25;98729.09;;;27.40;53.08
57574;BME280;68988;49.000;21.242;2023-06-24T00:30:50;98729.31;;;27.43;52.87
57574;BME280;68988;49.000;21.242;2023-06-24T00:33:16;98734.41;;;27.45;52.87
57574;BME280;68988;49.000;21.242;2023-06-24T00:35:47;98744.66;;;27.43;52.82
57574;BME280;68988;49.000;21.242;2023-06-24T00:38:13;98731.19;;;27.43;52.95
57574;BME280;68988;49.000;21.242;2023-06-24T00:40:39;98724.75;;;27.44;52.62
57574;BME280;68988;49.000;21.242;2023-06-24T00:43:05;98716.69;;;27.39;53.24
57574;BME280;68988;49.000;21.242;2023-06-24T00:45:30;98726.41;;;27.40;52.76
57574;BME280;68988;49.000;21.242;2023-06-24T00:47:57;98736.81;;;27.46;52.94
57574;BME280;68988;49.000;21.242;2023-06-24T00:50:23;98739.84;;;27.40;52.82
57574;BME280;68988;49.000;21.242;2023-06-24T00:52:48;98730.16;;;27.39;52.83
57574;BME280;68988;49.000;21.242;2023-06-24T00:55:15;98740.38;;;27.42;53.05
57574;BME280;68988;49.000;21.242;2023-06-24T00:57:44;98734.69;;;27.43;52.56
57574;BME280;68988;49.000;21.242;2023-06-24T01:00:11;98745.75;;;27.42;52.84
57574;BME280;68988;49.000;21.242;2023-06-24T01:02:40;98743.63;;;27.39;53.05
57574;BME280;68988;49.000;21.242;2023-06-24T01:05:08;98742.03;;;27.38;52.89
57574;BME280;68988;49.000;21.242;2023-06-24T01:07:35;98749.00;;;27.39;52.73
57574;BME280;68988;49.000;21.242;2023-06-24T01:10:03;98736.66;;;27.38;53.02
57574;BME280;68988;49.000;21.242;2023-06-24T01:12:30;98738.25;;;27.39;53.09
57574;BME280;68988;49.000;21.242;2023-06-24T01:14:56;98734.47;;;27.40;52.50
57574;BME280;68988;49.000;21.242;2023-06-24T01:17:24;98725.31;;;27.41;52.61
57574;BME280;68988;49.000;21.242;2023-06-24T01:26:06;98720.34;;;27.48;52.39
57574;BME280;68988;49.000;21.242;2023-06-24T01:31:40;98705.94;;;27.39;52.59
57574;BME280;68988;49.000;21.242;2023-06-24T01:34:15;98700.53;;;27.39;52.69
57574;BME280;68988;49.000;21.242;2023-06-24T01:36:49;98698.97;;;27.38;52.57
57574;BME280;68988;49.000;21.242;2023-06-24T01:39:18;98696.78;;;27.40;52.41
57574;BME280;68988;49.000;21.242;2023-06-24T01:41:59;98695.16;;;27.39;52.85
57574;BME280;68988;49.000;21.242;2023-06-24T01:44:27;98686.28;;;27.38;52.30
57574;BME280;68988;49.000;21.242;2023-06-24T01:46:55;98684.97;;;27.36;52.46
57574;BME280;68988;49.000;21.242;2023-06-24T01:49:23;98687.16;;;27.33;52.70
57574;BME280;68988;49.000;21.242;2023-06-24T01:51:54;98687.16;;;27.33;52.76
57574;BME280;68988;49.000;21.242;2023-06-24T01:54:22;98675.81;;;27.37;52.34
57574;BME280;68988;49.000;21.242;2023-06-24T01:56:50;98680.03;;;27.43;52.33
57574;BME280;68988;49.000;21.242;2023-06-24T01:59:18;98671.22;;;27.37;52.32
57574;BME280;68988;49.000;21.242;2023-06-24T02:01:45;98672.53;;;27.40;52.25
57574;BME280;68988;49.000;21.242;2023-06-24T02:04:11;98667.94;;;27.40;52.12
57574;BME280;68988;49.000;21.242;2023-06-24T02:06:39;98663.13;;;27.37;52.47
57574;BME280;68988;49.000;21.242;2023-06-24T02:09:05;98665.25;;;27.40;52.34
57574;BME280;68988;49.000;21.242;2023-06-24T02:11:33;98659.06;;;27.40;52.20
57574;BME280;68988;49.000;21.242;2023-06-24T02:13:59;98651.00;;;27.40;52.43
57574;BME280;68988;49.000;21.242;2023-06-24T02:16:26;98646.69;;;27.39;52.16
57574;BME280;68988;49.000;21.242;2023-06-24T02:18:53;98635.91;;;27.39;52.23
57574;BME280;68988;49.000;21.242;2023-06-24T02:21:20;98631.56;;;27.43;52.44
57574;BME280;68988;49.000;21.242;2023-06-24T02:23:47;98619.75;;;27.39;52.40
57574;BME280;68988;49.000;21.242;2023-06-24T02:26:14;98617.59;;;27.41;52.15
57574;BME280;68988;49.000;21.242;2023-06-24T02:28:40;98618.69;;;27.40;52.13
57574;BME280;68988;49.000;21.242;2023-06-24T02:31:08;98613.78;;;27.42;51.96
57574;BME280;68988;49.000;21.242;2023-06-24T02:33:34;98611.41;;;27.40;52.00
57574;BME280;68988;49.000;21.242;2023-06-24T02:36:00;98603.03;;;27.42;51.95
57574;BME280;68988;49.000;21.242;2023-06-24T02:38:25;98597.72;;;27.37;52.31
57574;BME280;68988;49.000;21.242;2023-06-24T02:40:51;98583.97;;;27.38;52.16
57574;BME280;68988;49.000;21.242;2023-06-24T02:43:17;98583.69;;;27.40;51.94
57574;BME280;68988;49.000;21.242;2023-06-24T02:45:44;98584.75;;;27.39;52.25
57574;BME280;68988;49.000;21.242;2023-06-24T02:48:11;98572.13;;;27.39;52.15
57574;BME280;68988;49.000;21.242;2023-06-24T02:50:37;98585.59;;;27.39;51.89
57574;BME280;68988;49.000;21.242;2023-06-24T02:53:05;98576.19;;;27.37;52.08
57574;BME280;68988;49.000;21.242;2023-06-24T02:55:32;98567.72;;;27.43;51.80
57574;BME280;68988;49.000;21.242;2023-06-24T02:57:58;98570.72;;;27.42;51.99
57574;BME280;68988;49.000;21.242;2023-06-24T03:00:25;98567.53;;;27.40;51.96
57574;BME280;68988;49.000;21.242;2023-06-24T03:02:51;98568.03;;;27.42;51.70
57574;BME280;68988;49.000;21.242;2023-06-24T03:05:17;98557.25;;;27.42;51.86
57574;BME280;68988;49.000;21.242;2023-06-24T03:07:44;98548.88;;;27.43;51.74
57574;BME280;68988;49.000;21.242;2023-06-24T03:10:10;98550.19;;;27.46;51.87
57574;BME280;68988;49.000;21.242;2023-06-24T03:12:36;98536.22;;;27.44;51.89
57574;BME280;68988;49.000;21.242;2023-06-24T03:15:01;98541.63;;;27.44;51.91
57574;BME280;68988;49.000;21.242;2023-06-24T03:17:27;98539.13;;;27.47;51.55
57574;BME280;68988;49.000;21.242;2023-06-24T03:19:52;98536.22;;;27.44;51.82
57574;BME280;68988;49.000;21.242;2023-06-24T03:22:18;98536.00;;;27.40;51.78
57574;BME280;68988;49.000;21.242;2023-06-24T03:24:43;98541.69;;;27.39;51.90
57574;BME280;68988;49.000;21.242;2023-06-24T03:27:09;98544.06;;;27.40;51.86
57574;BME280;68988;49.000;21.242;2023-06-24T03:29:34;98548.09;;;27.43;51.63
57574;BME280;68988;49.000;21.242;2023-06-24T03:32:00;98553.56;;;27.38;52.11
57574;BME280;68988;49.000;21.242;2023-06-24T03:34:25;98554.06;;;27.40;52.13
57574;BME280;68988;49.000;21.242;2023-06-24T03:36:53;98555.72;;;27.36;52.19
57574;BME280;68988;49.000;21.242;2023-06-24T03:39:19;98563.22;;;27.39;51.94
57574;BME280;68988;49.000;21.242;2023-06-24T03:41:45;98559.94;;;27.42;51.90
57574;BME280;68988;49.000;21.242;2023-06-24T03:44:11;98566.44;;;27.41;51.92
57574;BME280;68988;49.000;21.242;2023-06-24T03:46:36;98575.59;;;27.40;51.88
57574;BME280;68988;49.000;21.242;2023-06-24T03:49:01;98585.28;;;27.41;51.94
57574;BME280;68988;49.000;21.242;2023-06-24T03:51:27;98589.56;;;27.42;51.77
57574;BME280;68988;49.000;21.242;2023-06-24T03:53:52;98596.84;;;27.41;52.05
57574;BME280;68988;49.000;21.242;2023-06-24T03:56:17;98609.22;;;27.42;51.93
57574;BME280;68988;49.000;21.242;2023-06-24T03:58:43;98615.41;;;27.43;51.94
57574;BME280;68988;49.000;21.242;2023-06-24T04:01:09;98618.41;;;27.41;51.95
57574;BME280;68988;49.000;21.242;2023-06-24T04:03:34;98624.34;;;27.38;52.10
57574;BME280;68988;49.000;21.242;2023-06-24T04:06:00;98622.91;;;27.46;51.98
57574;BME280;68988;49.000;21.242;2023-06-24T04:08:27;98626.97;;;27.43;52.13
57574;BME280;68988;49.000;21.242;2023-06-24T04:10:56;98626.19;;;27.43;51.79
57574;BME280;68988;49.000;21.242;2023-06-24T04:13:22;98636.75;;;27.39;52.27
57574;BME280;68988;49.000;21.242;2023-06-24T04:15:47;98642.84;;;27.45;52.05
57574;BME280;68988;49.000;21.242;2023-06-24T04:18:13;98637.25;;;27.41;52.30
57574;BME280;68988;49.000;21.242;2023-06-24T04:20:39;98639.16;;;27.41;52.00
57574;BME280;68988;49.000;21.242;2023-06-24T04:23:04;98636.44;;;27.41;52.01
57574;BME280;68988;49.000;21.242;2023-06-24T04:25:31;98641.25;;;27.44;51.88
57574;BME280;68988;49.000;21.242;2023-06-24T04:27:56;98646.66;;;27.44;52.00
57574;BME280;68988;49.000;21.242;2023-06-24T04:30:22;98643.94;;;27.44;52.05
57574;BME280;68988;49.000;21.242;2023-06-24T04:32:47;98654.94;;;27.47;51.78
57574;BME280;68988;49.000;21.242;2023-06-24T04:35:13;98650.13;;;27.44;52.06
57574;BME280;68988;49.000;21.242;2023-06-24T04:37:38;98651.50;;;27.42;52.02
57574;BME280;68988;49.000;21.242;2023-06-24T04:40:05;98655.50;;;27.44;51.89
57574;BME280;68988;49.000;21.242;2023-06-24T04:42:31;98651.50;;;27.42;51.89
57574;BME280;68988;49.000;21.242;2023-06-24T04:44:56;98657.91;;;27.46;51.88
57574;BME280;68988;49.000;21.242;2023-06-24T04:47:21;98658.50;;;27.43;51.99
57574;BME280;68988;49.000;21.242;2023-06-24T04:49:47;98657.41;;;27.44;52.01
57574;BME280;68988;49.000;21.242;2023-06-24T04:52:12;98663.31;;;27.46;52.06
57574;BME280;68988;49.000;21.242;2023-06-24T04:54:38;98662.56;;;27.40;52.09
57574;BME280;68988;49.000;21.242;2023-06-24T04:57:08;98668.47;;;27.42;52.12
57574;BME280;68988;49.000;21.242;2023-06-24T04:59:33;98660.69;;;27.41;51.97
57574;BME280;68988;49.000;21.242;2023-06-24T05:01:59;98658.50;;;27.43;51.91
57574;BME280;68988;49.000;21.242;2023-06-24T05:04:24;98665.50;;;27.44;51.88
57574;BME280;68988;49.000;21.242;2023-06-24T05:06:49;98668.69;;;27.46;51.81
57574;BME280;68988;49.000;21.242;2023-06-24T05:09:15;98666.50;;;27.48;51.96
57574;BME280;68988;49.000;21.242;2023-06-24T05:11:41;98667.06;;;27.45;52.22
57574;BME280;68988;49.000;21.242;2023-06-24T05:14:06;98663.59;;;27.44;51.93
57574;BME280;68988;49.000;21.242;2023-06-24T05:16:32;98669.78;;;27.45;51.96
57574;BME280;68988;49.000;21.242;2023-06-24T05:18:57;98666.78;;;27.46;51.59
57574;BME280;68988;49.000;21.242;2023-06-24T05:21:22;98666.78;;;27.46;52.12
57574;BME280;68988;49.000;21.242;2023-06-24T05:23:48;98669.72;;;27.50;51.83
57574;BME280;68988;49.000;21.242;2023-06-24T05:26:13;98666.50;;;27.48;51.84
57574;BME280;68988;49.000;21.242;2023-06-24T05:28:39;98663.31;;;27.46;51.80
57574;BME280;68988;49.000;21.242;2023-06-24T05:31:04;98661.09;;;27.48;51.76
57574;BME280;68988;49.000;21.242;2023-06-24T05:33:30;98682.66;;;27.48;51.72
57574;BME280;68988;49.000;21.242;2023-06-24T05:35:55;98682.94;;;27.46;51.92
57574;BME280;68988;49.000;21.242;2023-06-24T05:38:21;98688.03;;;27.48;52.01
57574;BME280;68988;49.000;21.242;2023-06-24T05:40:46;98686.47;;;27.47;51.84
57574;BME280;68988;49.000;21.242;2023-06-24T05:43:11;98697.72;;;27.49;51.84
57574;BME280;68988;49.000;21.242;2023-06-24T05:45:37;98704.78;;;27.45;52.09
57574;BME280;68988;49.000;21.242;2023-06-24T05:48:03;98709.16;;;27.41;51.90
57574;BME280;68988;49.000;21.242;2023-06-24T05:50:28;98717.44;;;27.44;52.16
57574;BME280;68988;49.000;21.242;2023-06-24T05:52:54;98713.69;;;27.45;51.91
57574;BME280;68988;49.000;21.242;2023-06-24T05:55:19;98715.34;;;27.41;52.27
57574;BME280;68988;49.000;21.242;2023-06-24T05:57:45;98722.63;;;27.41;52.24
57574;BME280;68988;49.000;21.242;2023-06-24T06:00:10;98727.44;;;27.44;51.80
57574;BME280;68988;49.000;21.242;2023-06-24T06:02:36;98731.72;;;27.45;52.16
57574;BME280;68988;49.000;21.242;2023-06-24T06:05:01;98740.91;;;27.44;51.92
57574;BME280;68988;49.000;21.242;2023-06-24T06:07:26;98746.03;;;27.40;52.05
57574;BME280;68988;49.000;21.242;2023-06-24T06:09:52;98745.16;;;27.45;52.21
57574;BME280;68988;49.000;21.242;2023-06-24T06:12:17;98748.44;;;27.42;51.95
57574;BME280;68988;49.000;21.242;2023-06-24T06:14:42;98751.66;;;27.44;51.91
57574;BME280;68988;49.000;21.242;2023-06-24T06:17:08;98756.22;;;27.43;52.43
57574;BME280;68988;49.000;21.242;2023-06-24T06:19:33;98760.25;;;27.46;51.80
57574;BME280;68988;49.000;21.242;2023-06-24T06:21:59;98773.44;;;27.47;52.17
57574;BME280;68988;49.000;21.242;2023-06-24T06:24:24;98772.63;;;27.47;51.92
57574;BME280;68988;49.000;21.242;2023-06-24T06:26:49;98776.91;;;27.48;52.16
57574;BME280;68988;49.000;21.242;2023-06-24T06:29:15;98781.22;;;27.49;51.98
57574;BME280;68988;49.000;21.242;2023-06-24T06:31:40;98783.97;;;27.44;52.37
57574;BME280;68988;49.000;21.242;2023-06-24T06:34:05;98782.38;;;27.43;52.21
57574;BME280;68988;49.000;21.242;2023-06-24T06:36:31;98785.56;;;27.45;51.88
57574;BME280;68988;49.000;21.242;2023-06-24T06:38:56;98781.69;;;27.56;51.83
57574;BME280;68988;49.000;21.242;2023-06-24T06:41:21;98779.31;;;27.49;52.08
57574;BME280;68988;49.000;21.242;2023-06-24T06:43:53;98783.41;;;27.47;52.17
57574;BME280;68988;49.000;21.242;2023-06-24T06:46:19;98786.91;;;27.47;52.26
57574;BME280;68988;49.000;21.242;2023-06-24T06:48:45;98786.59;;;27.49;52.07
57574;BME280;68988;49.000;21.242;2023-06-24T06:51:10;98800.56;;;27.51;51.84
57574;BME280;68988;49.000;21.242;2023-06-24T06:53:35;98795.47;;;27.49;52.16
57574;BME280;68988;49.000;21.242;2023-06-24T06:56:01;98797.38;;;27.49;52.26
57574;BME280;68988;49.000;21.242;2023-06-24T06:58:26;98799.00;;;27.50;52.59
57574;BME280;68988;49.000;21.242;2023-06-24T07:00:51;98798.47;;;27.48;52.11
57574;BME280;68988;49.000;21.242;2023-06-24T07:03:17;98801.16;;;27.48;52.17
57574;BME280;68988;49.000;21.242;2023-06-24T07:05:42;98805.75;;;27.47;52.40
57574;BME280;68988;49.000;21.242;2023-06-24T07:08:07;98803.84;;;27.48;52.20
57574;BME280;68988;49.000;21.242;2023-06-24T07:10:33;98806.53;;;27.48;52.29
57574;BME280;68988;49.000;21.242;2023-06-24T07:12:59;98801.97;;;27.48;52.28
57574;BME280;68988;49.000;21.242;2023-06-24T07:15:25;98797.66;;;27.47;52.41
57574;BME280;68988;49.000;21.242;2023-06-24T07:17:51;98798.72;;;27.51;52.26
57574;BME280;68988;49.000;21.242;2023-06-24T07:20:16;98801.41;;;27.51;52.02
57574;BME280;68988;49.000;21.242;2023-06-24T07:22:42;98808.38;;;27.52;52.56
57574;BME280;68988;49.000;21.242;2023-06-24T07:25:07;98801.13;;;27.53;51.93
57574;BME280;68988;49.000;21.242;2023-06-24T07:27:32;98804.38;;;27.50;52.57
57574;BME280;68988;49.000;21.242;2023-06-24T07:29:58;98798.72;;;27.51;52.11
57574;BME280;68988;49.000;21.242;2023-06-24T07:32:23;98795.19;;;27.51;51.97
57574;BME280;68988;49.000;21.242;2023-06-24T07:34:48;98787.38;;;27.55;51.93
57574;BME280;68988;49.000;21.242;2023-06-24T07:37:14;98780.88;;;27.56;52.16
57574;BME280;68988;49.000;21.242;2023-06-24T07:39:39;98784.66;;;27.55;51.95
57574;BME280;68988;49.000;21.242;2023-06-24T07:42:05;98788.44;;;27.54;52.38
57574;BME280;68988;49.000;21.242;2023-06-24T07:44:30;98783.28;;;27.57;52.21
57574;BME280;68988;49.000;21.242;2023-06-24T07:46:56;98790.56;;;27.57;52.37
57574;BME280;68988;49.000;21.242;2023-06-24T07:49:21;98788.66;;;27.57;52.11
57574;BME280;68988;49.000;21.242;2023-06-24T07:51:46;98793.75;;;27.59;52.07
57574;BME280;68988;49.000;21.242;2023-06-24T07:54:12;98798.84;;;27.60;52.44
57574;BME280;68988;49.000;21.242;2023-06-24T07:56:37;98804.03;;;27.57;52.21
57574;BME280;68988;49.000;21.242;2023-06-24T07:59:02;98816.41;;;27.58;52.26
57574;BME280;68988;49.000;21.242;2023-06-24T08:01:28;98810.47;;;27.61;52.31
57574;BME280;68988;49.000;21.242;2023-06-24T08:03:53;98799.97;;;27.59;52.21
57574;BME280;68988;49.000;21.242;2023-06-24T08:06:19;98809.13;;;27.58;52.17
57574;BME280;68988;49.000;21.242;2023-06-24T08:08:44;98809.63;;;27.60;52.14
57574;BME280;68988;49.000;21.242;2023-06-24T08:11:11;98809.41;;;27.57;52.41
57574;BME280;68988;49.000;21.242;2023-06-24T08:13:36;98817.44;;;27.62;52.40
57574;BME280;68988;49.000;21.242;2023-06-24T08:16:02;98812.03;;;27.62;52.28
57574;BME280;68988;49.000;21.242;2023-06-24T08:18:27;98818.25;;;27.62;52.30
57574;BME280;68988;49.000;21.242;2023-06-24T08:20:53;98822.88;;;27.57;52.09
57574;BME280;68988;49.000;21.242;2023-06-24T08:23:18;98825.78;;;27.60;52.26
57574;BME280;68988;49.000;21.242;2023-06-24T08:25:43;98820.69;;;27.59;52.54
57574;BME280;68988;49.000;21.242;2023-06-24T08:28:10;98826.91;;;27.59;52.64
57574;BME280;68988;49.000;21.242;2023-06-24T08:30:35;98824.22;;;27.59;52.57
57574;BME280;68988;49.000;21.242;2023-06-24T08:33:00;98831.44;;;27.64;52.31
57574;BME280;68988;49.000;21.242;2023-06-24T08:35:26;98826.53;;;27.66;52.40
57574;BME280;68988;49.000;21.242;2023-06-24T08:37:51;98826.31;;;27.62;52.30
57574;BME280;68988;49.000;21.242;2023-06-24T08:40:17;98831.44;;;27.64;52.11
57574;BME280;68988;49.000;21.242;2023-06-24T08:42:43;98821.72;;;27.63;52.18
57574;BME280;68988;49.000;21.242;2023-06-24T08:45:09;98823.06;;;27.65;52.21
57574;BME280;68988;49.000;21.242;2023-06-24T08:47:35;98823.06;;;27.65;52.21
57574;BME280;68988;49.000;21.242;2023-06-24T08:50:06;98835.13;;;27.68;52.22
57574;BME280;68988;49.000;21.242;2023-06-24T08:52:35;98833.75;;;27.71;52.01
57574;BME280;68988;49.000;21.242;2023-06-24T08:55:01;98836.47;;;27.71;52.08
57574;BME280;68988;49.000;21.242;2023-06-24T08:57:28;98838.88;;;27.72;52.17
57574;BME280;68988;49.000;21.242;2023-06-24T08:59:53;98843.19;;;27.73;52.08
57574;BME280;68988;49.000;21.242;2023-06-24T09:02:19;98844.25;;;27.72;52.31
57574;BME280;68988;49.000;21.242;2023-06-24T09:04:44;98845.88;;;27.73;52.14
57574;BME280;68988;49.000;21.242;2023-06-24T09:07:10;98847.25;;;27.71;52.31
57574;BME280;68988;49.000;21.242;2023-06-24T09:09:44;98845.06;;;27.73;52.13
57574;BME280;68988;49.000;21.242;2023-06-24T09:12:13;98854.25;;;27.72;52.25
57574;BME280;68988;49.000;21.242;2023-06-24T09:14:39;98844.03;;;27.68;52.09
57574;BME280;68988;49.000;21.242;2023-06-24T09:17:06;98849.13;;;27.70;52.09
57574;BME280;68988;49.000;21.242;2023-06-24T09:19:32;98852.63;;;27.71;52.35
57574;BME280;68988;49.000;21.242;2023-06-24T09:22:03;98854.25;;;27.72;52.32
57574;BME280;68988;49.000;21.242;2023-06-24T09:24:30;98857.22;;;27.70;52.02
57574;BME280;68988;49.000;21.242;2023-06-24T09:26:56;98859.09;;;27.69;52.31
57574;BME280;68988;49.000;21.242;2023-06-24T09:29:31;98861.78;;;27.69;52.03
57574;BME280;68988;49.000;21.242;2023-06-24T09:31:57;98855.03;;;27.72;52.18
57574;BME280;68988;49.000;21.242;2023-06-24T09:34:24;98851.00;;;27.69;51.89
57574;BME280;68988;49.000;21.242;2023-06-24T09:36:54;98853.66;;;27.75;52.01
57574;BME280;68988;49.000;21.242;2023-06-24T09:39:20;98855.91;;;27.67;52.15
57574;BME280;68988;49.000;21.242;2023-06-24T09:41:59;98853.66;;;27.75;51.93
57574;BME280;68988;49.000;21.242;2023-06-24T09:44:28;98858.13;;;27.84;51.65
57574;BME280;68988;49.000;21.242;2023-06-24T09:46:54;98851.00;;;27.69;51.97
57574;BME280;68988;49.000;21.242;2023-06-24T09:49:21;98857.22;;;27.70;51.98
57574;BME280;68988;49.000;21.242;2023-06-24T09:51:49;98851.00;;;27.69;52.04
57574;BME280;68988;49.000;21.242;2023-06-24T09:54:15;98849.66;;;27.72;52.25
57574;BME280;68988;49.000;21.242;2023-06-24T09:56:49;98848.78;;;27.77;51.86
57574;BME280;68988;49.000;21.242;2023-06-24T09:59:15;98849.28;;;27.79;52.07
57574;BME280;68988;49.000;21.242;2023-06-24T10:01:41;98848.44;;;27.83;52.06
57574;BME280;68988;49.000;21.242;2023-06-24T10:04:09;98845.22;;;27.81;51.97
57574;BME280;68988;49.000;21.242;2023-06-24T10:06:35;98836.84;;;27.83;51.99
57574;BME280;68988;49.000;21.242;2023-06-24T10:09:00;98837.34;;;27.85;51.83
57574;BME280;68988;49.000;21.242;2023-06-24T10:11:26;98830.59;;;27.87;51.68
57574;BME280;68988;49.000;21.242;2023-06-24T10:13:52;98836.00;;;27.87;51.80
57574;BME280;68988;49.000;21.242;2023-06-24T10:16:18;98833.81;;;27.90;51.91
57574;BME280;68988;49.000;21.242;2023-06-24T10:18:44;98829.22;;;27.90;51.96
57574;BME280;68988;49.000;21.242;2023-06-24T10:21:10;98836.22;;;27.91;51.87
57574;BME280;68988;49.000;21.242;2023-06-24T10:26:25;98834.34;;;27.92;51.56
57574;BME280;68988;49.000;21.242;2023-06-24T10:34:20;98833.81;;;27.90;51.76
57574;BME280;68988;49.000;21.242;2023-06-24T10:47:27;98848.72;;;27.82;51.89
57574;BME280;68988;49.000;21.242;2023-06-24T10:49:53;98858.91;;;27.85;52.07
57574;BME280;68988;49.000;21.242;2023-06-24T10:52:19;98858.41;;;27.83;52.12
57574;BME280;68988;49.000;21.242;2023-06-24T10:54:49;98857.84;;;27.86;51.86
57574;BME280;68988;49.000;21.242;2023-06-24T10:57:16;98854.63;;;27.84;51.94
57574;BME280;68988;49.000;21.242;2023-06-24T10:59:47;98852.72;;;27.84;52.10
57574;BME280;68988;49.000;21.242;2023-06-24T11:02:14;98857.34;;;27.84;51.85
57574;BME280;68988;49.000;21.242;2023-06-24T11:04:48;98846.25;;;27.85;52.06
57574;BME280;68988;49.000;21.242;2023-06-24T11:07:14;98845.72;;;27.83;51.94
57574;BME280;68988;49.000;21.242;2023-06-24T11:09:40;98847.63;;;27.83;51.81
57574;BME280;68988;49.000;21.242;2023-06-24T11:12:09;98840.06;;;27.85;51.58
57574;BME280;68988;49.000;21.242;2023-06-24T11:14:35;98843.84;;;27.84;52.04
57574;BME280;68988;49.000;21.242;2023-06-24T11:17:01;98845.44;;;27.85;51.77
57574;BME280;68988;49.000;21.242;2023-06-24T11:19:27;98841.16;;;27.84;51.94
57574;BME280;68988;49.000;21.242;2023-06-24T11:21:52;98828.25;;;27.81;51.82
57574;BME280;68988;49.000;21.242;2023-06-24T11:24:17;98844.94;;;27.83;51.90
57574;BME280;68988;49.000;21.242;2023-06-24T11:26:43;98840.13;;;27.80;51.90
57574;BME280;68988;49.000;21.242;2023-06-24T11:29:11;98833.13;;;27.79;52.04
57574;BME280;68988;49.000;21.242;2023-06-24T11:31:37;98837.13;;;27.81;51.77
57574;BME280;68988;49.000;21.242;2023-06-24T11:34:03;98839.03;;;27.81;51.83
57574;BME280;68988;49.000;21.242;2023-06-24T11:36:29;98841.16;;;27.84;51.81
57574;BME280;68988;49.000;21.242;2023-06-24T11:38:54;98836.34;;;27.81;52.03
57574;BME280;68988;49.000;21.242;2023-06-24T11:41:22;98840.13;;;27.80;51.70
57574;BME280;68988;49.000;21.242;2023-06-24T11:43:50;98842.31;;;27.78;52.12
57574;BME280;68988;49.000;21.242;2023-06-24T11:46:42;98838.19;;;27.85;51.55
57574;BME280;68988;49.000;21.242;2023-06-24T11:49:08;98828.84;;;27.78;51.77
57574;BME280;68988;49.000;21.242;2023-06-24T11:51:36;98837.44;;;27.80;51.58
57574;BME280;68988;49.000;21.242;2023-06-24T11:54:04;98836.38;;;27.76;51.78
57574;BME280;68988;49.000;21.242;2023-06-24T11:56:41;98834.16;;;27.83;51.52
57574;BME280;68988;49.000;21.242;2023-06-24T11:59:15;98821.19;;;27.85;51.67
57574;BME280;68988;49.000;21.242;2023-06-24T12:01:44;98829.13;;;27.76;51.38
57574;BME280;68988;49.000;21.242;2023-06-24T12:04:11;98829.34;;;27.80;51.67
57574;BME280;68988;49.000;21.242;2023-06-24T12:06:36;98830.72;;;27.77;51.55
57574;BME280;68988;49.000;21.242;2023-06-24T12:09:01;98831.53;;;27.78;51.29
57574;BME280;68988;49.000;21.242;2023-06-24T12:11:27;98828.84;;;27.78;51.25
57574;BME280;68988;49.000;21.242;2023-06-24T12:13:52;98833.13;;;27.79;51.48
57574;BME280;68988;49.000;21.242;2023-06-24T12:16:18;98836.94;;;27.78;51.43
57574;BME280;68988;49.000;21.242;2023-06-24T12:18:43;98834.72;;;27.80;51.07
57574;BME280;68988;49.000;21.242;2023-06-24T12:21:09;98828.56;;;27.79;51.32
57574;BME280;68988;49.000;21.242;2023-06-24T12:23:35;98826.38;;;27.81;51.00
57574;BME280;68988;49.000;21.242;2023-06-24T12:26:00;98821.56;;;27.78;51.06
57574;BME280;68988;49.000;21.242;2023-06-24T12:28:25;98829.63;;;27.78;51.14
57574;BME280;68988;49.000;21.242;2023-06-24T12:30:51;98823.44;;;27.78;51.05
57574;BME280;68988;49.000;21.242;2023-06-24T12:33:16;98823.16;;;27.79;51.15
57574;BME280;68988;49.000;21.242;2023-06-24T12:35:45;98827.44;;;27.80;50.91
57574;BME280;68988;49.000;21.242;2023-06-24T12:38:11;98817.19;;;27.82;51.14
57574;BME280;68988;49.000;21.242;2023-06-24T12:40:36;98822.81;;;27.86;50.62
57574;BME280;68988;49.000;21.242;2023-06-24T12:43:02;98815.50;;;27.86;50.66
57574;BME280;68988;49.000;21.242;2023-06-24T12:45:29;98825.00;;;27.84;50.77
57574;BME280;68988;49.000;21.242;2023-06-24T12:47:54;98812.59;;;27.83;50.72
57574;BME280;68988;49.000;21.242;2023-06-24T12:50:20;98825.78;;;27.84;50.63
57574;BME280;68988;49.000;21.242;2023-06-24T12:52:45;98812.25;;;27.90;50.72
57574;BME280;68988;49.000;21.242;2023-06-24T12:55:10;98822.31;;;27.84;50.61
57574;BME280;68988;49.000;21.242;2023-06-24T12:57:36;98815.28;;;27.83;50.53
57574;BME280;68988;49.000;21.242;2023-06-24T13:00:02;98814.22;;;27.84;50.37
57574;BME280;68988;49.000;21.242;2023-06-24T13:02:30;98819.06;;;27.82;50.52
57574;BME280;68988;49.000;21.242;2023-06-24T13:04:55;98827.16;;;27.82;50.50
57574;BME280;68988;49.000;21.242;2023-06-24T13:07:21;98826.66;;;27.80;50.34
57574;BME280;68988;49.000;21.242;2023-06-24T13:09:46;98828.78;;;27.83;50.67
57574;BME280;68988;49.000;21.242;2023-06-24T13:12:11;98828.78;;;27.83;50.18
57574;BME280;68988;49.000;21.242;2023-06-24T13:14:37;98841.16;;;27.84;50.17